createdAt,value
2023-02-06T00:00:54.232Z,82.80
2023-02-06T00:03:20.952Z,82.70
2023-02-06T00:05:57.881Z,82.70
2023-02-06T00:08:25.138Z,82.70
2023-02-06T00:10:53.120Z,82.70
2023-02-06T00:13:19.841Z,82.80
2023-02-06T00:15:46.702Z,82.80
2023-02-06T00:18:13.411Z,83.00
2023-02-06T00:20:40.020Z,83.10
2023-02-06T00:23:06.680Z,83.20
2023-02-06T00:25:33.689Z,82.90
2023-02-06T00:28:00.621Z,83.00
2023-02-06T00:30:27.480Z,83.00
2023-02-06T00:32:54.195Z,82.90
2023-02-06T00:35:20.847Z,83.00
2023-02-06T00:37:47.562Z,83.20
2023-02-06T00:40:14.255Z,83.20
2023-02-06T00:42:40.921Z,83.20
2023-02-06T00:45:08.519Z,83.30
2023-02-06T00:47:35.176Z,83.30
2023-02-06T00:50:01.985Z,83.30
2023-02-06T00:52:28.610Z,83.30
2023-02-06T00:54:55.273Z,83.40
2023-02-06T00:57:21.974Z,83.40
2023-02-06T00:59:48.704Z,83.30
2023-02-06T01:02:15.330Z,83.40
2023-02-06T01:04:41.985Z,83.40
2023-02-06T01:07:08.623Z,83.60
2023-02-06T01:09:35.445Z,83.50
2023-02-06T01:12:02.118Z,83.50
2023-02-06T01:14:28.926Z,83.30
2023-02-06T01:16:55.768Z,83.50
2023-02-06T01:19:22.533Z,83.50
2023-02-06T01:21:49.194Z,83.60
2023-02-06T01:24:15.835Z,83.50
2023-02-06T01:26:42.490Z,83.60
2023-02-06T01:29:09.098Z,83.50
2023-02-06T01:31:35.765Z,83.50
2023-02-06T01:34:02.450Z,83.70
2023-02-06T01:36:29.342Z,84.00
2023-02-06T01:38:56.028Z,84.00
2023-02-06T01:41:22.954Z,84.10
2023-02-06T01:44:08.617Z,84.10
2023-02-06T01:46:35.325Z,84.00
2023-02-06T01:49:03.626Z,84.10
2023-02-06T01:51:31.228Z,84.20
2023-02-06T01:54:02.430Z,84.20
2023-02-06T01:56:31.716Z,84.10
2023-02-06T01:59:00.082Z,84.30
2023-02-06T02:01:26.868Z,84.30
2023-02-06T02:03:56.069Z,84.40
2023-02-06T02:06:23.932Z,84.50
2023-02-06T02:08:52.194Z,84.60
2023-02-06T02:11:31.945Z,84.60
2023-02-06T02:13:59.818Z,84.50
2023-02-06T02:16:48.405Z,84.50
2023-02-06T02:19:25.477Z,84.50
2023-02-06T02:22:26.262Z,85.00
2023-02-06T02:24:59.936Z,84.60
2023-02-06T02:27:49.217Z,84.60
2023-02-06T02:31:05.286Z,84.40
2023-02-06T02:33:47.284Z,84.50
2023-02-06T02:36:18.846Z,84.60
2023-02-06T02:38:58.083Z,84.50
2023-02-06T02:41:35.972Z,84.20
2023-02-06T02:44:15.005Z,84.00
2023-02-06T02:46:46.964Z,83.70
2023-02-06T02:49:17.593Z,83.60
2023-02-06T02:51:44.295Z,83.90
2023-02-06T02:54:11.052Z,84.00
2023-02-06T02:56:41.891Z,84.20
2023-02-06T02:59:14.710Z,84.20
2023-02-06T03:01:44.808Z,84.20
2023-02-06T03:04:15.456Z,84.20
2023-02-06T03:06:52.519Z,84.50
2023-02-06T03:09:28.299Z,84.30
2023-02-06T03:12:36.852Z,84.40
2023-02-06T03:15:17.595Z,84.50
2023-02-06T03:17:47.116Z,84.60
2023-02-06T03:20:13.925Z,85.00
2023-02-06T03:22:40.611Z,85.10
2023-02-06T03:25:10.509Z,85.10
2023-02-06T03:27:37.877Z,85.20
2023-02-06T03:30:04.910Z,85.30
2023-02-06T03:32:32.649Z,85.50
2023-02-06T03:35:05.427Z,85.60
2023-02-06T03:37:32.127Z,85.70
2023-02-06T03:40:00.425Z,85.80
2023-02-06T03:42:27.776Z,85.80
2023-02-06T03:45:06.124Z,85.80
2023-02-06T03:47:33.506Z,85.40
2023-02-06T03:50:00.472Z,85.30
2023-02-06T03:52:29.916Z,85.20
2023-02-06T03:55:02.620Z,85.10
2023-02-06T03:57:29.927Z,84.90
2023-02-06T03:59:56.706Z,84.90
2023-02-06T04:02:23.479Z,84.90
2023-02-06T04:04:50.164Z,85.10
2023-02-06T04:07:26.160Z,85.70
2023-02-06T04:09:52.924Z,86.00
2023-02-06T04:12:19.944Z,86.30
2023-02-06T04:14:46.697Z,86.40
2023-02-06T04:17:18.742Z,86.60
2023-02-06T04:19:50.795Z,86.50
2023-02-06T04:22:18.609Z,86.70
2023-02-06T04:24:45.387Z,86.80
2023-02-06T04:27:12.944Z,86.90
2023-02-06T04:29:39.702Z,86.80
2023-02-06T04:32:06.523Z,86.70
2023-02-06T04:34:34.031Z,86.50
2023-02-06T04:37:01.014Z,86.60
2023-02-06T04:39:27.948Z,86.40
2023-02-06T04:41:54.650Z,86.50
2023-02-06T04:44:21.712Z,86.50
2023-02-06T04:46:48.570Z,86.60
2023-02-06T04:49:15.621Z,86.60
2023-02-06T04:51:42.544Z,86.30
2023-02-06T04:54:10.540Z,86.10
2023-02-06T04:56:37.399Z,85.70
2023-02-06T04:59:04.183Z,85.70
2023-02-06T05:01:31.103Z,85.60
2023-02-06T05:03:58.050Z,85.60
2023-02-06T05:06:24.839Z,85.80
2023-02-06T05:08:51.629Z,86.20
2023-02-06T05:11:18.333Z,86.40
2023-02-06T05:13:45.604Z,86.60
2023-02-06T05:16:14.675Z,86.60
2023-02-06T05:18:41.976Z,86.70
2023-02-06T05:21:09.742Z,86.70
2023-02-06T05:23:36.424Z,86.90
2023-02-06T05:26:03.449Z,86.90
2023-02-06T05:28:30.201Z,86.70
2023-02-06T05:30:57.264Z,86.60
2023-02-06T05:33:24.100Z,86.30
2023-02-06T05:35:50.785Z,86.10
2023-02-06T05:38:18.701Z,85.90
2023-02-06T05:40:45.622Z,85.70
2023-02-06T05:43:13.473Z,85.50
2023-02-06T05:45:40.449Z,85.40
2023-02-06T05:48:07.316Z,85.40
2023-02-06T05:50:34.080Z,85.30
2023-02-06T05:53:01.984Z,85.30
2023-02-06T05:55:28.714Z,85.30
2023-02-06T05:57:55.545Z,85.20
2023-02-06T06:00:22.490Z,85.10
2023-02-06T06:02:49.251Z,85.10
2023-02-06T06:05:17.015Z,85.20
2023-02-06T06:07:45.842Z,85.20
2023-02-06T06:10:12.648Z,85.20
2023-02-06T06:12:40.884Z,85.20
2023-02-06T06:15:07.984Z,85.20
2023-02-06T06:17:34.701Z,85.10
2023-02-06T06:20:05.090Z,85.20
2023-02-06T06:22:31.861Z,85.30
2023-02-06T06:24:58.647Z,85.50
2023-02-06T06:27:25.455Z,85.50
2023-02-06T06:29:52.302Z,85.60
2023-02-06T06:32:19.485Z,85.40
2023-02-06T06:34:46.305Z,85.50
2023-02-06T06:37:12.999Z,85.40
2023-02-06T06:39:39.831Z,85.60
2023-02-06T06:42:06.611Z,85.50
2023-02-06T06:44:33.377Z,85.70
2023-02-06T06:47:00.004Z,85.70
2023-02-06T06:49:28.939Z,85.70
2023-02-06T06:51:55.726Z,85.60
2023-02-06T06:54:22.522Z,85.60
2023-02-06T06:56:49.218Z,85.60
2023-02-06T06:59:15.825Z,85.70
2023-02-06T07:01:42.494Z,85.70
2023-02-06T07:04:10.216Z,85.70
2023-02-06T07:06:50.027Z,85.60
2023-02-06T07:09:16.844Z,85.50
2023-02-06T07:11:43.485Z,85.70
2023-02-06T07:14:10.173Z,85.70
2023-02-06T07:16:36.954Z,85.70
2023-02-06T07:19:03.627Z,85.50
2023-02-06T07:21:30.304Z,85.60
2023-02-06T07:23:57.016Z,85.60
2023-02-06T07:26:23.729Z,85.50
2023-02-06T07:28:50.406Z,85.80
2023-02-06T07:31:17.187Z,85.80
2023-02-06T07:33:43.854Z,86.00
2023-02-06T07:36:11.979Z,85.90
2023-02-06T07:38:38.865Z,85.90
2023-02-06T07:41:05.704Z,86.10
2023-02-06T07:43:32.415Z,86.10
2023-02-06T07:46:03.549Z,86.10
2023-02-06T07:48:30.520Z,86.20
2023-02-06T07:50:57.841Z,86.30
2023-02-06T07:53:24.560Z,86.30
2023-02-06T07:55:51.227Z,86.40
2023-02-06T07:58:17.898Z,86.60
2023-02-06T08:00:45.920Z,87.10
2023-02-06T08:03:12.669Z,87.60
2023-02-06T08:05:39.495Z,87.80
2023-02-06T08:08:06.824Z,87.90
2023-02-06T08:10:33.574Z,88.00
2023-02-06T08:13:00.192Z,88.10
2023-02-06T08:15:27.059Z,88.10
2023-02-06T08:17:53.881Z,88.20
2023-02-06T08:20:20.597Z,88.10
2023-02-06T08:22:47.240Z,88.10
2023-02-06T08:25:13.963Z,88.20
2023-02-06T08:27:40.627Z,88.40
2023-02-06T08:30:07.815Z,88.70
2023-02-06T08:32:34.977Z,88.80
2023-02-06T08:35:02.023Z,88.90
2023-02-06T08:37:30.859Z,89.10
2023-02-06T08:39:57.572Z,89.50
2023-02-06T08:42:24.202Z,90.10
2023-02-06T08:44:50.880Z,90.90
2023-02-06T08:47:29.281Z,91.60
2023-02-06T08:49:56.156Z,92.10
2023-02-06T08:52:22.990Z,92.40
2023-02-06T08:54:51.166Z,92.80
2023-02-06T08:57:44.098Z,93.10
2023-02-06T09:00:15.839Z,93.50
2023-02-06T09:02:44.199Z,93.70
2023-02-06T09:05:26.885Z,93.70
2023-02-06T09:11:11.829Z,93.60
2023-02-06T09:13:41.062Z,93.60
2023-02-06T09:16:21.304Z,93.50
2023-02-06T09:19:00.977Z,93.40
2023-02-06T09:21:29.552Z,93.30
2023-02-06T09:23:57.903Z,93.20
2023-02-06T09:26:29.330Z,93.10
2023-02-06T09:28:57.557Z,93.10
2023-02-06T09:31:28.261Z,93.20
2023-02-06T09:33:57.437Z,93.30
2023-02-06T09:36:24.134Z,93.40
2023-02-06T09:38:53.897Z,93.40
2023-02-06T09:41:47.757Z,93.30
2023-02-06T09:44:20.361Z,93.20
2023-02-06T09:47:22.800Z,92.90
2023-02-06T09:49:54.098Z,92.70
2023-02-06T09:52:51.650Z,92.50
2023-02-06T09:56:05.777Z,92.30
2023-02-06T09:58:46.800Z,91.80
2023-02-06T10:01:27.304Z,91.70
2023-02-06T10:04:35.849Z,91.90
2023-02-06T10:07:27.355Z,91.90
2023-02-06T10:10:01.707Z,91.80
2023-02-06T10:12:40.917Z,91.80
2023-02-06T10:15:12.932Z,91.70
2023-02-06T10:17:52.721Z,91.60
2023-02-06T10:20:31.660Z,91.30
2023-02-06T10:23:23.990Z,91.00
2023-02-06T10:26:05.589Z,90.80
2023-02-06T10:28:32.732Z,90.60
2023-02-06T10:31:25.344Z,90.40
2023-02-06T10:34:13.557Z,88.90
2023-02-06T10:37:00.953Z,88.30
2023-02-06T10:40:05.240Z,87.70
2023-02-06T10:42:57.846Z,87.00
2023-02-06T10:45:33.302Z,86.10
2023-02-06T10:48:08.765Z,86.60
2023-02-06T10:50:39.474Z,86.40
2023-02-06T10:53:30.160Z,85.90
2023-02-06T10:56:23.993Z,85.20
2023-02-06T10:59:14.745Z,84.40
2023-02-06T11:01:41.616Z,83.60
2023-02-06T11:04:14.027Z,83.50
2023-02-06T11:06:42.173Z,82.10
2023-02-06T11:09:11.742Z,81.00
2023-02-06T11:11:46.683Z,79.50
2023-02-06T11:14:26.291Z,78.70
2023-02-06T11:16:53.046Z,78.30
2023-02-06T11:19:38.419Z,77.20
2023-02-06T11:22:05.320Z,75.70
2023-02-06T11:24:33.508Z,75.10
2023-02-06T11:27:03.954Z,74.20
2023-02-06T11:29:37.419Z,72.30
2023-02-06T11:32:55.761Z,68.80
2023-02-06T11:35:25.836Z,66.60
2023-02-06T11:37:53.796Z,65.40
2023-02-06T11:40:25.215Z,63.20
2023-02-06T11:43:06.789Z,61.40
2023-02-06T11:45:38.845Z,59.80
2023-02-06T11:48:05.990Z,59.80
2023-02-06T11:50:36.831Z,58.30
2023-02-06T11:53:17.073Z,55.40
2023-02-06T11:55:44.622Z,54.60
2023-02-06T11:58:14.291Z,55.10
2023-02-06T12:01:04.451Z,55.50
2023-02-06T12:03:32.604Z,56.40
2023-02-06T12:06:14.354Z,55.50
2023-02-06T12:08:51.127Z,54.40
2023-02-06T12:11:30.705Z,52.20
2023-02-06T12:14:07.026Z,51.50
2023-02-06T12:16:34.797Z,51.20
2023-02-06T12:19:01.531Z,50.40
2023-02-06T12:21:42.164Z,50.60
2023-02-06T12:24:38.544Z,50.40
2023-02-06T12:27:19.759Z,51.10
2023-02-06T12:30:40.205Z,49.60
2023-02-06T12:33:12.333Z,48.70
2023-02-06T12:36:00.329Z,48.70
2023-02-06T12:38:33.050Z,50.60
2023-02-06T12:41:19.563Z,50.60
2023-02-06T12:43:50.942Z,49.10
2023-02-06T12:46:20.840Z,50.40
2023-02-06T12:48:55.863Z,51.00
2023-02-06T12:51:25.728Z,50.30
2023-02-06T12:53:56.892Z,50.10
2023-02-06T12:56:23.616Z,48.40
2023-02-06T12:59:09.013Z,47.70
2023-02-06T13:01:53.181Z,46.50
2023-02-06T13:04:24.847Z,45.70
2023-02-06T13:07:13.390Z,44.10
2023-02-06T13:09:49.618Z,43.70
2023-02-06T13:12:23.761Z,42.50
2023-02-06T13:14:58.016Z,42.00
2023-02-06T13:17:35.052Z,42.10
2023-02-06T13:20:02.931Z,42.50
2023-02-06T13:22:42.768Z,42.20
2023-02-06T13:25:31.487Z,40.20
2023-02-06T13:28:11.109Z,40.90
2023-02-06T13:30:37.922Z,40.60
2023-02-06T13:33:19.188Z,40.40
2023-02-06T13:36:06.319Z,39.60
2023-02-06T13:38:36.065Z,38.90
2023-02-06T13:41:35.464Z,41.10
2023-02-06T13:44:13.649Z,41.90
2023-02-06T13:46:47.455Z,40.80
2023-02-06T13:50:01.805Z,40.20
2023-02-06T13:52:39.326Z,38.90
2023-02-06T13:55:29.814Z,38.40
2023-02-06T13:58:34.262Z,37.80
2023-02-06T14:01:05.055Z,39.40
2023-02-06T14:03:34.040Z,38.80
2023-02-06T14:06:05.127Z,38.40
2023-02-06T14:08:43.246Z,38.50
2023-02-06T14:11:56.673Z,38.00
2023-02-06T14:14:54.880Z,38.60
2023-02-06T14:17:43.339Z,37.90
2023-02-06T14:20:29.979Z,38.10
2023-02-06T14:23:25.606Z,39.50
2023-02-06T14:25:59.244Z,41.60
2023-02-06T14:28:53.864Z,42.30
2023-02-06T14:31:37.514Z,43.00
2023-02-06T14:34:18.539Z,43.60
2023-02-06T14:37:34.560Z,44.10
2023-02-06T14:40:04.665Z,45.40
2023-02-06T14:42:39.759Z,46.20
2023-02-06T14:45:22.771Z,46.70
2023-02-06T14:47:49.622Z,47.00
2023-02-06T14:50:21.600Z,48.20
2023-02-06T14:52:50.924Z,49.30
2023-02-06T14:55:37.879Z,49.20
2023-02-06T14:58:26.518Z,49.70
2023-02-06T15:00:54.353Z,50.20
2023-02-06T15:03:26.977Z,50.10
2023-02-06T15:06:05.659Z,50.40
2023-02-06T15:08:33.386Z,51.40
2023-02-06T15:11:02.143Z,51.20
2023-02-06T15:13:31.890Z,51.80
2023-02-06T15:15:58.581Z,52.40
2023-02-06T15:18:25.317Z,52.80
2023-02-06T15:21:13.550Z,53.50
2023-02-06T15:23:59.237Z,54.80
2023-02-06T15:26:41.682Z,55.20
2023-02-06T15:29:19.284Z,53.90
2023-02-06T15:31:50.341Z,53.90
2023-02-06T15:34:18.864Z,54.90
2023-02-06T15:36:45.920Z,55.10
2023-02-06T15:39:16.005Z,55.40
2023-02-06T15:41:45.706Z,56.10
2023-02-06T15:44:15.234Z,56.10
2023-02-06T15:46:42.040Z,55.50
2023-02-06T15:49:32.545Z,55.20
2023-02-06T15:51:59.306Z,55.40
2023-02-06T15:54:26.699Z,56.00
2023-02-06T15:57:03.985Z,56.00
2023-02-06T15:59:31.245Z,57.00
2023-02-06T16:01:59.115Z,57.10
2023-02-06T16:04:31.095Z,57.00
2023-02-06T16:07:04.716Z,57.20
2023-02-06T16:09:31.425Z,57.40
2023-02-06T16:11:58.160Z,57.60
2023-02-06T16:14:38.442Z,57.50
2023-02-06T16:17:12.352Z,57.90
2023-02-06T16:20:08.319Z,58.50
2023-02-06T16:22:38.019Z,58.70
2023-02-06T16:25:13.970Z,58.90
2023-02-06T16:27:45.285Z,60.40
2023-02-06T16:30:23.976Z,58.60
2023-02-06T16:35:41.562Z,59.40
2023-02-06T16:38:09.407Z,59.30
2023-02-06T16:40:36.411Z,60.10
2023-02-06T16:43:03.352Z,60.60
2023-02-06T16:45:30.077Z,60.70
2023-02-06T16:47:56.936Z,61.10
2023-02-06T16:50:23.703Z,61.60
2023-02-06T16:52:52.540Z,61.80
2023-02-06T16:55:26.504Z,62.40
2023-02-06T16:57:56.471Z,62.30
2023-02-06T17:00:26.884Z,62.30
2023-02-06T17:02:53.720Z,62.40
2023-02-06T17:05:26.183Z,62.90
2023-02-06T17:07:53.011Z,62.80
2023-02-06T17:10:22.060Z,62.80
2023-02-06T17:12:48.996Z,63.20
2023-02-06T17:15:16.709Z,63.20
2023-02-06T17:17:43.683Z,63.30
2023-02-06T17:20:32.991Z,63.20
2023-02-06T17:22:59.832Z,63.20
2023-02-06T17:25:26.581Z,63.70
2023-02-06T17:27:53.479Z,64.20
2023-02-06T17:30:21.500Z,64.60
2023-02-06T17:32:48.609Z,64.70
2023-02-06T17:35:15.628Z,64.80
2023-02-06T17:37:42.530Z,65.20
2023-02-06T17:40:11.854Z,64.90
2023-02-06T17:42:38.755Z,65.20
2023-02-06T17:45:05.833Z,65.20
2023-02-06T17:47:32.537Z,65.20
2023-02-06T17:49:59.273Z,64.70
2023-02-06T17:52:25.984Z,64.80
2023-02-06T17:54:52.692Z,64.80
2023-02-06T17:57:19.341Z,65.20
2023-02-06T17:59:46.070Z,65.10
2023-02-06T18:02:12.766Z,64.60
2023-02-06T18:04:39.479Z,64.70
2023-02-06T18:07:07.006Z,64.90
2023-02-06T18:09:33.710Z,65.20
2023-02-06T18:12:06.453Z,65.30
2023-02-06T18:14:33.828Z,65.30
2023-02-06T18:17:01.967Z,65.30
2023-02-06T18:19:29.031Z,65.10
2023-02-06T18:21:55.888Z,65.30
2023-02-06T18:24:22.669Z,65.40
2023-02-06T18:26:49.467Z,65.50
2023-02-06T18:29:16.341Z,65.40
2023-02-06T18:31:43.018Z,65.70
2023-02-06T18:34:10.454Z,66.30
2023-02-06T18:36:37.523Z,66.50
2023-02-06T18:39:05.327Z,66.80
2023-02-06T18:41:32.096Z,66.70
2023-02-06T18:44:07.048Z,67.00
2023-02-06T18:46:33.904Z,67.40
2023-02-06T18:49:01.789Z,67.80
2023-02-06T18:51:28.590Z,67.90
2023-02-06T18:53:55.375Z,68.30
2023-02-06T18:56:22.141Z,68.50
2023-02-06T18:58:48.911Z,68.70
2023-02-06T19:01:17.437Z,69.00
2023-02-06T19:03:44.246Z,69.10
2023-02-06T19:06:15.756Z,69.50
2023-02-06T19:08:45.104Z,69.60
2023-02-06T19:11:13.048Z,70.10
2023-02-06T19:13:39.943Z,70.20
2023-02-06T19:16:08.519Z,70.50
2023-02-06T19:18:38.845Z,70.70
2023-02-06T19:21:08.846Z,71.00
2023-02-06T19:23:35.540Z,71.10
2023-02-06T19:26:04.676Z,71.00
2023-02-06T19:28:31.506Z,70.90
2023-02-06T19:31:01.903Z,70.90
2023-02-06T19:33:29.522Z,71.30
2023-02-06T19:35:57.690Z,71.70
2023-02-06T19:38:24.534Z,71.80
2023-02-06T19:40:51.271Z,72.10
2023-02-06T19:43:18.604Z,72.20
2023-02-06T19:45:45.519Z,72.30
2023-02-06T19:48:14.105Z,72.60
2023-02-06T19:50:46.710Z,72.70
2023-02-06T19:53:15.660Z,72.80
2023-02-06T19:55:47.381Z,72.90
2023-02-06T19:58:14.223Z,73.20
2023-02-06T20:00:41.150Z,73.20
2023-02-06T20:03:08.004Z,73.40
2023-02-06T20:05:36.736Z,73.60
2023-02-06T20:08:05.100Z,73.60
2023-02-06T20:10:34.206Z,73.90
2023-02-06T20:13:03.074Z,74.00
2023-02-06T20:15:30.292Z,74.20
2023-02-06T20:17:57.009Z,74.20
2023-02-06T20:20:28.659Z,74.20
2023-02-06T20:22:56.339Z,74.50
2023-02-06T20:25:23.050Z,74.50
2023-02-06T20:27:49.854Z,74.50
2023-02-06T20:30:18.013Z,74.60
2023-02-06T20:32:47.321Z,74.80
2023-02-06T20:35:19.409Z,74.90
2023-02-06T20:37:46.308Z,75.00
2023-02-06T20:40:13.046Z,75.30
2023-02-06T20:42:39.730Z,74.90
2023-02-06T20:45:06.720Z,74.90
2023-02-06T20:47:33.460Z,75.20
2023-02-06T20:50:00.136Z,75.50
2023-02-06T20:52:27.054Z,75.50
2023-02-06T20:54:53.745Z,75.50
2023-02-06T20:57:20.519Z,75.50
2023-02-06T20:59:47.375Z,75.70
2023-02-06T21:02:14.096Z,75.70
2023-02-06T21:04:43.741Z,75.80
2023-02-06T21:07:10.489Z,75.80
2023-02-06T21:09:37.240Z,76.00
2023-02-06T21:12:04.133Z,76.10
2023-02-06T21:14:30.945Z,76.00
2023-02-06T21:16:57.845Z,76.10
2023-02-06T21:19:24.967Z,76.20
2023-02-06T21:21:51.726Z,76.30
2023-02-06T21:24:18.567Z,76.40
2023-02-06T21:26:45.432Z,76.50
2023-02-06T21:29:12.667Z,76.70
2023-02-06T21:31:40.436Z,76.50
2023-02-06T21:34:19.724Z,76.60
2023-02-06T21:36:46.557Z,76.60
2023-02-06T21:39:18.818Z,76.80
2023-02-06T21:41:45.630Z,77.00
2023-02-06T21:44:12.778Z,77.10
2023-02-06T21:46:39.453Z,77.00
2023-02-06T21:49:06.092Z,77.10
2023-02-06T21:51:32.709Z,77.40
2023-02-06T21:53:59.406Z,77.50
2023-02-06T21:56:27.304Z,77.70
2023-02-06T21:58:57.948Z,77.60
2023-02-06T22:01:27.460Z,77.80
2023-02-06T22:03:54.269Z,77.60
2023-02-06T22:06:21.057Z,77.70
2023-02-06T22:08:51.134Z,77.90
2023-02-06T22:11:18.684Z,78.00
2023-02-06T22:13:45.604Z,79.00
2023-02-06T22:16:13.504Z,77.70
2023-02-06T22:18:40.566Z,77.80
2023-02-06T22:21:09.272Z,77.90
2023-02-06T22:23:36.044Z,78.00
2023-02-06T22:26:03.003Z,78.00
2023-02-06T22:28:29.690Z,78.00
2023-02-06T22:30:56.568Z,78.20
2023-02-06T22:33:23.306Z,78.30
2023-02-06T22:35:49.980Z,78.70
2023-02-06T22:38:17.808Z,78.50
2023-02-06T22:40:44.449Z,78.50
2023-02-06T22:43:11.118Z,78.60
2023-02-06T22:45:38.193Z,78.70
2023-02-06T22:48:05.168Z,78.70
2023-02-06T22:50:33.709Z,78.70
2023-02-06T22:53:00.387Z,78.80
2023-02-06T22:55:27.120Z,78.80
2023-02-06T22:57:53.744Z,78.90
2023-02-06T23:00:20.489Z,78.90
2023-02-06T23:02:47.133Z,78.90
2023-02-06T23:05:13.831Z,79.00
2023-02-06T23:07:40.517Z,78.90
2023-02-06T23:10:07.345Z,78.90
2023-02-06T23:12:34.060Z,78.90
2023-02-06T23:15:00.702Z,79.20
2023-02-06T23:17:27.388Z,79.30
2023-02-06T23:19:54.057Z,79.30
2023-02-06T23:22:20.734Z,79.30
2023-02-06T23:24:50.059Z,79.40
2023-02-06T23:27:16.658Z,79.40
2023-02-06T23:29:43.329Z,79.60
2023-02-06T23:32:09.947Z,79.70
2023-02-06T23:34:38.509Z,79.80
2023-02-06T23:37:05.776Z,80.00
2023-02-06T23:39:32.421Z,80.00
2023-02-06T23:41:59.090Z,79.80
2023-02-06T23:44:25.712Z,79.90
2023-02-06T23:46:52.382Z,79.90
2023-02-06T23:49:18.992Z,79.90
2023-02-06T23:51:45.745Z,80.10
2023-02-06T23:54:12.443Z,80.00
2023-02-06T23:56:39.106Z,80.10
2023-02-06T23:59:05.884Z,80.20
